Airfield :
LOGIN :

Register | Disclaimer

   EN    FR    IT 

 










Legend :    VFR   Marginal VFR   IFR   Intensive IFR   Very Intensive IFR
Visi :
Ceiling :
>= 8 km
>= 3000ft
5 to 8 km
1000 to 3000 ft
1500m to 5 km
500 to 1000 ft
800 to 1500m
200 to 500 ft
< 800m
< 200 ft
Symbols :   Thunderstorms  Fog  Heavy snow  Heavy precipitations  Wind > 20 kt
SIGMETs :     Misc.  Thunderstorms  Icing  Turbulence  Mountain Waves  Volcanic Ashes







- Airport Elevation : 14 ft
- IATA code : BRE


EDDW - Bremen Neuenland

CURRENT METAR :
  • 240720Z 15006KT 2800 -DZ BKN004 11/10 Q1020 TEMPO 1200

EXPIRED METARs :
  • 240650Z 14006KT 2800 -DZ BKN004 10/10 Q1020 TEMPO 1200
  • 240620Z 14006KT 2500 -DZ BKN004 10/09 Q1020 TEMPO 1200
  • 240550Z 15006KT 4000 -DZ SCT006 BKN008 10/09 Q1020 TEMPO 2500 BKN004
  • 240520Z 13004KT 5000 -DZ BKN008 BKN010 10/09 Q1020 TEMPO 4000
  • 240450Z 14005KT 9999 FEW011 BKN031 10/09 Q1020 NOSIG
  • 240420Z 14005KT 9999 FEW011 BKN028 10/09 Q1020 NOSIG

TAF TAF EDDW
Valid from the 24 at 06:00 until the 25 at 06:00 UTC


240500Z 2406/2506 17006KT 2500 -DZ BR BKN004
TEMPO 2406/2417 5000 BKN008
PROB30
TEMPO 2408/2417 BKN010
BECMG 2410/2412 23008KT
TEMPO 2417/2503 1400 DZ
PROB30
TEMPO 2418/2506 4000
No reported NOTAMs for that airfield.



MET'MAP, your aeronautical weather chart ! - Copyright ORBIFLY December 2007 - Disclaimer

ORBIFLY MET'MAP TEAM :

Programming & Development : Alexandra Zaïnal
Concept & Development : Baudouin d'Aumeries
Co-Development & Prog : Marc-Olivier Méhu
Technical & hardware support : Manuel Goepfert

Contact : metmap@orbifly.com




SOURCES & CREDITS :

   NOAA